Accueil
METAR-TAF:

METAR-TAF

Aéroports :

Aéroport de Clermont-Ferrand Auvergne

Clermont-Ferrand, France

latitude: 45-47N, longitude: 003-10E, altitude: 332 m

Observation

Le bulletin a été fait il y a 15 minutes, à 05:30 UTC
Vent 9 kt de sud
Température 0°C
Humidité 74%
Pression 995 hPa
Visibilité 10 km ou plus
pas de nuages en-dessous de 1500 mètres et pas de cumulonimbus.

METAR: LFLC 050530Z AUTO 19009KT CAVOK M00/M04 Q0995 NOSIG

Heure: 06:45 (05:45 UTC)

Prévision

Le bulletin a été fait il y a 45 minutes, à 05:00 UTC
Prévision valable du 05 à 06 UTC au 06 à 06 UTC
Vent 10 kt de sud
Visibilité 10 km ou plus
pas de nuages en-dessous de 1500 mètres et pas de cumulonimbus.
Evoluant progressivement
du 06 à 00 UTC au 06 à 02 UTC
Nuages fragmentés à une hauteur de 5000 ft

TAF: LFLC 050500Z 0506/0606 18010KT CAVOK BECMG 0600/0602 BKN050

Observations et prévisions météorologiques de plus de 4000 aéroports (messages METAR et TAF).

Les stations disponibles sont représentées par des disques jaunes et rouges sur la carte.

Passer la souris dessus pour voir le nom de la station.

Cliquer dessus pour voir les observations et prévisions météorologiques.

Pour changer de carte: cliquez sur les boutons verts avec une croix noire pour zoomer, sur le bouton vert avec un tiret pour effectuer un zoom arrière, ou sur les flèches vertes pour les cartes adjacentes.


METAR-TAF: